Date,TemperatureHighF,TemperatureAvgF,TemperatureLowF,DewpointHighF,DewpointAvgF,DewpointLowF,HumidityHigh,HumidityAvg,HumidityLow,PressureMaxIn,PressureMinIn,WindSpeedMaxMPH,WindSpeedAvgMPH,GustSpeedMaxMPH,PrecipitationSumIn
2013-1-1,16.9,5.5,-3.2,5.8,-0.6,-7.5,87,76,61,30.23,30.11,7,1,7,0.00
2013-1-2,25.2,17.9,11.3,16.6,10.7,4.3,82,73,57,30.12,30.01,7,2,7,0.00
2013-1-3,26.6,20.3,9.9,20.3,15.7,5.0,86,82,77,30.20,30.02,11,4,11,0.00
2013-1-4,31.3,18.9,8.6,20.2,13.1,4.2,87,78,63,30.17,30.06,11,3,11,0.00
2013-1-5,34.9,24.2,7.0,31.2,20.2,3.4,92,85,73,30.19,29.85,13,2,13,0.03
2013-1-6,33.8,22.2,6.8,28.1,17.0,3.2,87,80,71,30.25,29.85,13,4,13,0.00
2013-1-7,36.4,25.2,7.4,25.9,18.8,3.8,89,77,63,30.24,30.00,11,2,11,0.01
2013-1-8,39.2,30.3,14.8,30.9,25.0,11.7,94,81,67,30.06,29.90,8,2,8,0.02
2013-1-9,40.0,32.1,18.7,31.1,24.5,14.2,84,74,57,30.43,29.89,15,4,15,0.00
2013-1-10,40.0,28.7,14.4,33.4,23.6,11.0,93,82,62,30.46,29.84,11,3,11,0.32
2013-1-11,44.6,39.3,34.0,42.9,37.6,32.4,95,94,89,29.84,29.57,10,2,10,0.04
2013-1-12,45.7,32.9,21.4,41.5,26.2,14.9,92,76,63,30.00,29.57,20,5,20,0.00
2013-1-13,21.8,16.2,11.7,15.0,8.6,4.1,78,72,65,30.18,29.88,13,6,13,0.00
2013-1-14,27.4,14.1,7.0,11.4,6.4,2.4,83,72,50,30.40,30.18,10,2,10,0.00
2013-1-15,31.3,18.3,7.7,15.7,10.6,3.6,87,73,52,30.37,30.03,10,1,10,0.00
2013-1-16,32.9,26.2,16.2,28.0,19.4,9.9,86,76,62,30.05,29.75,16,4,16,0.00
2013-1-17,28.6,19.3,12.1,19.4,8.5,4.2,82,63,46,30.36,30.05,12,4,12,0.00
2013-1-18,44.3,30.4,13.0,32.1,23.0,7.7,81,74,61,30.37,29.79,13,4,13,0.00
2013-1-19,47.7,35.8,14.9,34.4,27.1,4.2,85,72,35,29.95,29.63,28,5,28,0.68
2013-1-20,15.1,10.4,6.3,6.5,-0.7,-2.2,70,61,49,30.28,29.96,22,6,22,0.12
2013-1-21,10.6,2.9,-2.7,2.3,-7.0,-11.6,74,63,51,30.24,30.09,16,7,16,0.00
2013-1-22,9.0,1.2,-6.7,-3.3,-8.0,-12.5,77,65,53,30.32,30.23,12,4,12,0.00
2013-1-23,19.1,11.9,3.2,13.1,4.0,-6.1,85,71,60,30.40,30.04,22,5,22,0.00
2013-1-24,16.0,7.5,-1.3,8.6,-1.5,-8.0,74,67,55,30.61,30.28,11,3,11,0.00
2013-1-25,26.6,19.2,12.2,16.0,11.7,5.2,84,73,59,30.28,29.89,15,5,15,0.00
2013-1-26,29.9,16.6,6.3,14.4,7.5,1.0,81,68,47,30.35,30.17,8,2,8,0.00
2013-1-27,33.1,28.0,22.1,31.2,22.4,13.1,93,80,67,30.28,29.81,12,4,12,0.00
2013-1-28,45.4,35.7,32.9,36.5,32.3,30.0,95,88,69,29.92,29.73,10,2,10,0.14
2013-1-29,54.0,41.0,34.4,51.3,39.2,32.5,96,93,88,29.75,29.47,9,3,9,1.61
2013-1-30,34.6,26.5,14.8,32.9,23.8,8.8,94,90,78,29.60,29.32,20,8,20,0.06
2013-1-31,14.8,9.8,0.7,9.7,3.4,-5.5,83,75,65,30.11,29.60,17,7,17,0.00
2013-2-1,6.8,0.5,-6.3,2.3,-5.8,-11.6,84,74,60,30.27,30.06,12,3,12,0.00
2013-2-2,14.4,6.9,0.4,4.4,1.1,-4.7,85,77,61,30.07,29.96,9,2,9,0.00
2013-2-3,23.2,13.9,7.0,11.8,7.9,2.9,86,77,58,29.99,29.89,13,3,13,0.00
2013-2-4,23.8,13.1,4.7,12.3,7.0,-1.7,86,77,52,29.96,29.89,9,2,9,0.00
2013-2-5,29.3,20.0,5.6,23.6,15.0,1.0,87,81,76,30.06,29.73,12,3,12,0.00
2013-2-6,33.5,18.4,-1.8,28.7,13.0,-5.7,91,80,63,30.17,30.01,9,2,9,0.01
2013-2-7,37.4,31.6,22.3,33.7,28.8,18.8,93,90,85,30.06,29.89,18,3,18,0.17
2013-2-8,32.8,18.9,1.8,20.4,13.3,-2.1,88,79,56,30.34,30.06,18,4,18,0.01
2013-2-9,31.9,22.5,0.0,25.0,18.6,-3.9,92,85,75,30.35,30.02,10,2,10,0.00
2013-2-10,41.4,32.8,18.4,40.1,30.6,15.8,96,91,84,30.02,29.35,15,3,15,0.08
2013-2-11,37.1,30.1,24.3,33.0,24.9,19.1,88,81,74,29.96,29.36,22,8,22,0.11
2013-2-12,36.0,24.1,19.3,23.2,17.7,14.9,88,77,59,30.04,29.82,13,4,13,0.00
2013-2-13,43.2,29.0,15.5,30.2,23.3,12.5,92,80,58,29.82,29.63,8,1,8,0.00
2013-2-14,35.6,32.8,26.1,32.8,26.7,18.9,92,79,61,29.98,29.53,22,6,22,0.05
2013-2-15,29.2,19.0,10.8,19.6,8.7,2.5,80,64,44,30.17,29.97,14,6,14,0.00
2013-2-16,23.2,11.1,3.8,6.0,1.7,-2.5,80,66,44,30.16,30.09,13,3,13,0.00
2013-2-17,28.4,15.2,0.2,19.1,6.5,-4.9,83,69,52,30.14,29.86,10,3,10,0.00
2013-2-18,46.4,33.8,22.1,35.7,27.2,17.0,93,77,65,29.86,29.45,18,4,18,0.05
2013-2-19,22.0,13.1,7.7,17.3,5.8,-1.8,85,73,61,30.16,29.54,20,10,20,0.00
2013-2-20,25.6,13.7,5.0,11.3,4.7,-2.3,75,67,53,30.33,30.15,12,4,12,0.00
2013-2-21,25.6,18.6,9.9,22.7,13.8,4.3,92,82,72,30.38,30.00,17,5,17,0.00
2013-2-22,39.6,28.3,23.4,29.4,23.6,20.5,91,83,63,30.00,29.75,14,4,14,0.07
2013-2-23,33.5,26.3,20.5,22.0,19.5,15.3,85,76,61,29.91,29.80,10,4,10,0.02
2013-2-24,43.2,24.5,12.2,24.7,16.6,8.8,89,73,46,30.09,29.90,5,1,5,0.02
2013-2-25,48.2,28.5,13.1,29.8,20.4,9.5,87,73,47,30.12,29.98,6,1,6,0.00
2013-2-26,34.7,30.4,27.5,28.2,25.8,23.1,93,83,70,29.99,29.63,26,10,26,0.01
2013-2-27,33.1,30.4,27.9,30.7,28.0,25.2,93,91,86,29.77,29.61,20,9,20,0.04
2013-2-28,35.1,30.9,24.1,29.1,25.4,18.9,91,80,67,30.10,29.77,16,6,16,0.02
2013-3-1,31.3,22.2,8.1,20.0,15.3,4.0,89,75,55,30.20,30.10,15,4,15,0.00
2013-3-2,32.2,15.0,4.9,13.9,6.8,-1.7,86,71,45,30.22,30.12,11,2,11,0.00
2013-3-3,38.9,14.0,0.0,16.0,4.4,-4.7,84,67,36,30.12,30.04,6,1,6,0.00
2013-3-4,36.7,24.1,8.1,26.9,16.4,1.6,84,73,54,30.08,29.96,12,4,12,0.00
2013-3-5,31.0,27.9,24.5,26.7,24.4,21.2,91,87,83,30.07,29.85,17,6,17,0.04
2013-3-6,34.6,28.0,20.3,25.8,22.2,14.3,87,79,69,30.28,30.07,12,5,12,0.03
2013-3-7,41.4,20.5,4.0,21.3,12.6,0.1,88,73,43,30.37,30.27,5,1,5,0.03
2013-3-8,43.2,24.8,6.7,27.5,17.9,2.5,92,76,53,30.40,30.21,9,2,9,0.00
2013-3-9,42.5,35.5,29.2,34.8,30.4,23.5,93,82,67,30.21,29.75,12,4,12,0.57
2013-3-10,40.3,36.8,33.7,38.3,34.9,31.8,94,93,90,29.77,29.60,15,4,15,1.03
2013-3-11,34.4,32.2,29.2,31.8,29.8,24.0,94,90,81,29.73,29.53,16,5,16,0.00
2013-3-12,33.5,28.1,24.8,26.0,22.4,17.1,89,79,66,29.98,29.73,15,6,15,0.02
2013-3-13,35.8,24.2,18.2,19.4,11.9,7.1,82,61,35,30.26,29.98,15,6,15,0.00
2013-3-14,43.9,27.0,13.9,30.3,19.6,8.0,89,74,55,30.26,30.01,8,1,8,0.02
2013-3-15,38.5,31.8,25.4,32.6,28.1,22.9,92,86,76,30.01,29.77,13,2,13,0.11
2013-3-16,31.9,26.4,20.9,25.5,20.2,15.9,90,78,65,30.10,29.77,15,5,15,0.00
2013-3-17,36.4,23.7,15.7,21.3,14.5,7.2,80,68,52,30.22,29.95,14,5,14,0.00
2013-3-18,40.5,26.7,16.7,31.6,21.6,9.6,90,81,68,29.95,29.54,20,5,20,0.02
2013-3-19,32.6,19.7,11.7,13.0,9.0,5.3,79,64,41,30.01,29.69,23,9,23,0.02
2013-3-20,22.1,14.4,8.3,7.0,3.3,-1.5,68,61,51,30.04,29.98,15,7,15,0.00
2013-3-21,34.9,18.2,7.6,12.9,6.8,-0.2,74,62,39,30.02,29.96,10,3,10,0.00
2013-3-22,43.2,23.5,10.4,19.0,11.5,4.0,81,62,33,30.04,29.98,5,1,5,0.01
2013-3-23,41.8,28.5,16.7,21.5,17.8,12.1,86,66,43,30.09,30.01,8,2,8,0.00
2013-3-24,33.1,29.9,28.3,27.6,24.4,21.1,86,80,73,30.03,29.77,18,6,18,0.01
2013-3-25,34.9,30.3,23.8,25.4,22.4,18.1,81,72,64,30.06,29.80,16,7,16,0.00
2013-3-26,43.9,34.4,29.2,29.9,24.6,22.2,78,68,50,30.22,30.06,10,4,10,0.00
2013-3-27,47.0,35.9,25.4,27.0,22.6,17.7,74,60,37,30.28,30.22,8,3,8,0.00
2013-3-28,54.2,34.9,22.7,24.8,20.6,16.3,80,59,30,30.31,30.24,6,1,6,0.00
2013-3-29,56.5,36.8,22.9,27.5,22.5,18.4,85,60,29,30.29,30.17,6,1,6,0.00
2013-3-30,53.3,42.6,32.2,40.7,32.4,23.0,91,68,54,30.18,29.79,9,2,10,0.01
2013-3-31,45.7,39.0,31.3,40.6,32.4,19.8,93,78,61,29.89,29.71,18,6,18,0.00
2013-4-1,38.0,30.0,24.8,19.8,15.3,11.4,67,55,36,30.15,29.89,17,8,17,0.00
2013-4-2,42.3,31.1,23.4,17.9,15.7,12.1,74,54,32,30.28,30.15,14,5,14,0.00
2013-4-3,50.2,34.7,23.0,20.2,16.8,10.1,76,51,25,30.41,30.22,10,2,10,0.00
2013-4-4,43.6,32.7,29.3,24.5,20.9,17.9,69,62,47,30.22,30.06,12,2,12,0.00
2013-4-5,54.4,39.9,30.6,29.2,25.4,21.2,74,57,34,30.21,30.01,15,4,15,0.00
2013-4-6,61.7,46.8,34.2,49.1,34.0,19.6,87,62,43,30.08,29.52,16,5,16,0.03
2013-4-7,61.7,45.6,36.4,44.5,35.4,30.8,84,69,41,29.93,29.56,15,6,17,0.00
2013-4-8,62.5,42.3,37.3,50.5,36.6,31.6,93,80,65,29.96,29.59,15,5,15,0.61
2013-4-9,42.1,38.8,36.2,39.7,36.6,33.8,94,92,89,29.99,29.83,15,6,15,1.28
2013-4-10,36.0,33.3,32.2,33.8,31.2,30.0,93,92,90,30.05,29.92,17,8,17,0.41
2013-4-11,39.2,36.7,34.4,37.4,34.7,32.6,94,92,89,29.76,29.55,19,7,19,0.51
2013-4-12,40.7,36.0,33.1,35.8,32.1,27.6,95,86,76,29.76,29.49,12,4,12,0.08
2013-4-13,39.1,35.0,31.0,29.3,27.0,24.8,86,73,61,29.95,29.75,16,5,16,0.00
2013-4-14,51.5,39.6,31.0,44.4,34.0,25.6,90,81,65,29.96,29.53,21,7,22,0.13
2013-4-15,61.2,47.3,40.1,48.5,40.5,33.3,95,79,38,29.94,29.56,19,4,19,0.46
2013-4-16,56.0,43.1,33.5,37.2,32.3,28.3,82,67,42,30.25,29.93,13,4,13,0.01
2013-4-17,42.5,40.2,37.4,40.5,36.2,32.6,94,86,73,30.27,29.83,23,6,23,1.17
2013-4-18,58.7,45.5,37.6,56.5,43.1,33.0,96,91,81,29.85,29.28,20,6,20,0.63
2013-4-19,40.0,35.4,31.1,33.0,28.0,21.8,86,74,59,29.88,29.33,23,9,23,0.05
2013-4-20,55.1,36.7,26.6,22.3,19.1,14.1,77,52,21,30.33,29.88,14,4,14,0.00
2013-4-21,54.7,42.6,32.8,35.8,28.8,20.3,74,59,42,30.43,30.20,15,5,15,0.00
2013-4-22,68.8,54.4,43.9,43.4,37.9,34.1,71,55,35,30.21,29.95,14,3,14,0.00
2013-4-23,56.5,43.5,37.3,46.3,35.5,27.8,87,73,57,29.97,29.85,17,6,17,0.00
2013-4-24,56.7,43.1,31.7,32.1,26.1,21.2,79,54,29,30.01,29.93,16,4,16,0.00
2013-4-25,56.2,44.3,35.8,35.3,31.1,25.3,87,62,34,30.23,29.93,14,5,14,0.04
2013-4-26,71.5,55.1,34.7,47.2,37.8,25.4,73,53,38,30.22,30.08,18,4,18,0.00
2013-4-27,67.5,56.1,43.7,50.4,45.0,39.3,89,68,48,30.19,29.97,8,2,8,0.00
2013-4-28,79.2,58.0,38.5,48.7,43.2,35.6,91,62,33,29.97,29.75,7,1,7,0.00
2013-4-29,72.4,60.6,49.1,57.6,51.3,42.8,84,72,55,29.82,29.67,11,3,11,0.09
2013-4-30,88.2,73.1,59.2,62.2,54.1,46.8,91,57,26,29.86,29.63,18,4,18,0.05
2013-5-1,85.7,65.3,49.7,58.7,49.4,40.3,72,58,38,30.19,29.86,19,5,19,0.04
2013-5-2,54.2,45.1,36.4,41.9,37.2,33.3,90,74,60,30.27,30.18,16,8,16,0.06
2013-5-3,46.8,40.2,34.7,45.2,38.1,32.5,95,92,89,30.19,29.96,15,6,15,0.64
2013-5-4,76.0,58.4,46.4,56.5,49.0,44.6,94,73,40,30.03,29.93,13,4,13,0.00
2013-5-5,78.3,61.1,47.0,53.3,46.9,41.5,87,63,34,30.04,29.96,11,3,11,0.00
2013-5-6,78.1,61.4,44.3,49.1,44.5,40.1,88,58,31,30.05,29.96,10,2,10,0.00
2013-5-7,86.0,67.5,52.6,50.9,44.2,35.5,81,48,18,30.04,29.95,10,2,10,0.00
2013-5-8,86.8,66.8,46.8,53.7,47.1,41.5,87,54,24,30.01,29.92,7,1,7,0.00
2013-5-9,65.7,59.4,48.8,58.0,52.8,46.7,94,79,56,29.93,29.83,15,3,15,0.72
2013-5-10,52.9,45.7,41.4,47.3,42.4,39.0,94,89,79,29.97,29.85,17,6,17,0.71
2013-5-11,53.3,47.2,40.5,48.7,36.3,24.9,96,68,39,30.01,29.76,23,7,23,0.01
2013-5-12,58.3,44.7,32.9,31.9,26.7,22.1,74,51,28,30.08,30.01,17,6,17,0.00
2013-5-13,68.4,51.8,29.7,38.8,31.8,24.4,85,51,24,30.13,29.85,10,2,10,0.00
2013-5-14,92.2,72.5,52.7,60.8,49.6,39.1,64,47,25,29.85,29.49,20,4,20,0.08
2013-5-15,79.2,69.9,54.0,60.5,47.1,38.0,70,46,25,29.84,29.54,14,4,14,0.00
2013-5-16,90.4,68.4,49.5,53.2,46.0,37.9,77,48,23,29.95,29.82,14,2,14,0.00
2013-5-17,64.3,56.7,48.4,55.1,46.1,35.2,92,69,46,30.07,29.93,13,4,13,0.73
2013-5-18,85.0,67.8,52.0,65.9,57.0,46.5,83,69,47,30.02,29.88,11,3,11,0.00
2013-5-19,86.4,73.0,61.2,67.2,61.9,56.9,87,69,48,29.91,29.62,16,4,16,0.05
2013-5-20,86.4,73.1,61.9,64.1,60.8,56.5,94,68,44,29.77,29.57,19,3,19,0.44
2013-5-21,78.5,70.2,59.0,62.6,58.2,53.8,85,67,50,29.67,29.57,16,3,16,0.00
2013-5-22,73.1,62.0,54.5,62.6,56.7,51.3,92,83,66,29.76,29.59,13,2,13,0.17
2013-5-23,65.7,54.7,45.7,52.0,45.0,35.8,93,73,36,30.26,29.76,18,6,18,0.10
2013-5-24,76.3,53.8,36.2,44.4,39.1,32.8,91,61,31,30.40,30.24,10,2,10,0.00
2013-5-25,65.0,54.7,47.9,43.6,39.5,34.3,74,57,39,30.33,30.23,11,3,11,0.01
2013-5-26,69.5,55.8,43.7,50.4,42.5,33.8,78,62,40,30.26,30.10,13,4,13,0.06
2013-5-27,56.3,53.5,51.1,52.7,49.0,42.4,94,85,67,30.11,29.84,15,6,15,0.05
2013-5-28,74.9,61.8,51.3,66.4,58.0,49.4,95,88,72,29.85,29.66,7,2,7,0.65
2013-5-29,86.4,71.9,61.9,69.3,63.6,59.7,94,77,56,29.86,29.72,16,3,16,0.23
2013-5-30,86.2,73.2,63.4,72.3,65.3,59.5,93,77,55,29.85,29.65,15,4,15,0.24
2013-5-31,81.4,70.3,63.2,67.4,62.4,59.8,91,77,53,29.74,29.63,15,4,15,0.00
2013-6-1,82.1,70.2,60.1,67.9,60.9,55.3,94,74,43,29.67,29.58,13,3,13,0.01
2013-6-2,67.9,55.9,48.2,57.1,44.9,39.8,85,68,43,29.98,29.67,19,5,19,0.00
2013-6-3,80.8,59.9,40.7,48.6,42.8,37.1,90,57,30,30.05,29.96,7,1,7,0.00
2013-6-4,72.5,62.6,52.7,52.4,48.0,41.0,82,60,43,30.11,30.02,12,2,12,0.10
2013-6-5,68.4,57.3,50.8,57.8,51.7,46.2,91,82,67,30.08,29.88,11,3,11,0.21
2013-6-6,61.2,56.5,51.8,54.7,51.9,49.3,93,85,79,29.92,29.87,8,3,8,0.16
2013-6-7,81.4,61.5,52.0,55.4,50.6,47.5,88,70,34,29.95,29.86,8,2,8,0.00
2013-6-8,77.6,64.8,52.9,52.5,49.5,44.7,86,60,38,29.95,29.88,10,2,10,0.00
2013-6-9,80.5,67.7,57.2,64.5,55.7,48.5,90,67,47,29.96,29.74,15,4,15,0.47
2013-6-10,82.3,71.5,59.2,66.2,62.2,56.4,92,74,53,29.82,29.72,8,2,8,0.00
2013-6-11,87.5,74.1,58.7,68.5,63.1,55.8,92,70,48,29.86,29.74,9,2,9,0.00
2013-6-12,80.1,70.6,61.6,69.6,65.0,59.0,93,83,68,29.86,29.54,26,4,26,0.70
2013-6-13,79.6,68.9,57.8,62.5,57.4,54.1,90,69,44,30.00,29.71,12,4,12,0.00
2013-6-14,84.6,69.2,53.1,60.6,56.0,49.8,94,65,40,30.10,29.93,9,2,9,0.03
2013-6-15,88.2,71.4,58.5,70.0,62.7,53.0,92,75,52,30.00,29.76,11,3,11,0.57
2013-6-16,88.2,75.4,63.0,67.1,59.8,49.8,95,63,30,29.86,29.79,11,3,11,0.00
2013-6-17,86.2,73.9,60.8,62.9,57.8,53.6,80,59,37,29.91,29.81,15,3,15,0.05
2013-6-18,78.8,65.5,56.0,58.0,51.9,45.6,84,63,37,30.03,29.91,13,4,13,0.00
2013-6-19,89.3,68.8,47.7,56.2,50.2,42.9,87,55,30,30.09,29.99,8,2,8,0.02
2013-6-20,91.8,76.2,59.4,63.4,56.0,46.5,68,51,32,30.07,29.96,11,3,11,0.00
2013-6-21,83.2,72.2,65.2,66.9,63.8,59.8,93,76,57,30.02,29.76,18,3,18,0.83
2013-6-22,87.5,72.5,65.9,72.3,66.5,63.2,93,82,60,30.03,29.83,15,3,15,1.57
2013-6-23,86.8,75.1,63.4,75.6,67.5,61.2,94,78,62,30.01,29.78,13,2,13,0.33
2013-6-24,84.8,73.7,68.0,69.4,66.2,63.7,90,78,57,29.95,29.76,11,2,11,0.00
2013-6-25,88.4,74.1,65.5,74.6,68.4,63.5,94,83,61,29.87,29.72,10,2,10,1.03
2013-6-26,90.7,76.4,66.6,71.5,68.4,62.1,94,78,49,29.74,29.63,19,2,19,2.73
2013-6-27,89.1,78.3,68.6,71.7,66.9,58.9,94,70,43,29.73,29.63,15,3,15,0.00
2013-6-28,76.5,69.2,63.4,65.3,61.1,57.1,92,76,56,29.69,29.57,15,4,15,0.28
2013-6-29,74.0,66.2,62.5,63.0,61.0,56.9,94,84,60,29.78,29.57,15,5,15,0.26
2013-6-30,79.6,67.5,56.5,59.1,53.9,48.6,87,64,38,29.98,29.78,14,4,14,0.00
2013-7-1,84.1,69.0,56.5,57.2,53.0,48.5,83,60,32,30.06,29.98,14,3,14,0.00
2013-7-2,77.4,66.8,55.1,56.7,50.8,40.9,86,59,29,30.06,29.98,13,2,13,0.00
2013-7-3,73.3,63.6,54.5,61.5,55.7,48.0,86,76,63,30.02,29.95,7,1,7,0.00
2013-7-4,88.9,73.0,55.8,63.7,58.7,53.2,92,64,39,30.00,29.92,8,1,8,0.00
2013-7-5,88.7,76.8,60.8,66.8,62.7,57.3,89,64,44,29.98,29.91,9,2,9,0.00
2013-7-6,91.1,77.7,64.1,67.9,63.7,57.4,83,63,45,29.96,29.86,8,2,9,0.00
2013-7-7,94.0,80.6,67.3,71.8,67.9,62.3,88,67,44,29.90,29.82,9,2,9,0.00
2013-7-8,93.1,80.3,71.5,75.9,71.6,68.0,91,76,54,29.91,29.81,12,3,12,0.15
2013-7-9,89.8,77.6,69.8,75.5,71.5,66.1,92,82,61,29.92,29.74,13,2,15,0.43
2013-7-10,79.9,73.2,61.7,72.5,62.0,55.2,89,69,47,29.94,29.76,14,4,14,0.00
2013-7-11,91.1,72.1,55.3,61.7,56.7,51.8,90,62,33,30.04,29.94,8,1,8,0.00
2013-7-12,91.6,74.3,55.4,61.4,55.3,50.4,89,55,30,30.07,29.98,9,2,9,0.00
2013-7-13,94.0,76.0,62.3,65.5,59.7,53.5,76,59,35,30.07,29.99,9,2,9,0.00
2013-7-14,93.8,78.7,61.0,70.7,63.9,55.3,85,62,43,30.14,30.05,10,2,10,0.00
2013-7-15,96.8,81.9,67.3,73.8,69.4,63.2,89,68,45,30.19,30.06,8,2,8,0.00
2013-7-16,96.5,87.9,71.6,75.9,73.2,68.2,90,63,48,30.19,30.09,7,2,8,0.00
2013-7-17,97.6,85.1,73.4,76.1,72.8,69.4,89,68,44,30.19,29.93,9,2,9,0.09
2013-7-18,96.1,84.9,72.2,75.3,71.8,68.4,89,67,46,30.01,29.64,12,3,12,0.00
2013-7-19,94.3,84.5,77.0,73.1,69.8,62.7,75,62,44,29.66,29.44,12,4,12,0.00
2013-7-23,74.9,68.9,56.7,58.1,54.9,51.4,84,62,48,30.04,29.85,14,5,14,0.00
2013-7-24,82.1,66.2,52.2,57.7,52.1,48.7,91,64,35,30.12,30.03,8,1,8,0.00
2013-7-25,82.6,68.4,53.6,66.1,58.5,49.5,88,72,50,30.10,29.99,9,2,9,0.11
2013-7-26,79.0,68.4,60.1,67.1,60.8,53.6,92,78,46,29.99,29.86,14,3,14,0.04
2013-7-27,63.0,55.9,51.7,55.2,47.8,43.7,86,75,58,29.98,29.89,13,5,13,0.02
2013-7-28,69.3,58.9,51.3,53.3,50.5,46.9,92,75,55,30.04,29.87,14,4,14,0.03
2013-7-29,85.0,65.6,51.1,61.5,54.7,48.0,91,70,41,30.18,30.04,7,2,8,0.00
2013-7-30,75.4,66.4,56.3,62.2,59.0,53.1,91,78,59,30.19,30.10,8,2,8,0.00
2013-7-31,83.2,69.9,60.7,67.3,61.8,56.0,91,76,57,30.11,29.98,14,2,14,0.00
2013-8-1,81.2,69.2,59.0,59.9,56.3,50.6,93,66,40,30.03,29.92,13,3,13,0.00
2013-8-2,81.7,70.9,61.2,65.3,58.8,52.3,91,68,39,29.99,29.85,10,3,10,0.10
2013-8-3,79.6,67.5,52.0,58.5,52.5,47.7,88,61,37,30.16,29.99,11,2,11,0.00
2013-8-4,78.8,66.9,52.2,58.7,53.4,47.7,87,64,41,30.24,30.12,6,1,8,0.00
2013-8-5,75.8,66.2,59.4,63.8,59.4,53.9,91,79,62,30.12,29.88,10,2,10,0.10
2013-8-6,88.4,75.7,66.1,69.8,66.6,63.4,92,75,52,29.90,29.80,9,2,9,0.00
2013-8-7,81.0,73.5,63.4,70.5,64.2,56.7,92,74,52,30.00,29.77,16,3,16,0.00
2013-8-8,87.5,71.2,58.7,63.2,59.1,55.4,92,68,38,30.07,29.99,8,2,8,0.00
2013-8-9,83.3,70.1,58.5,64.2,57.8,52.0,83,66,43,30.08,29.99,10,2,10,0.00
2013-8-10,79.9,66.3,54.0,57.2,53.7,49.9,88,66,41,30.18,30.08,8,2,8,0.00
2013-8-11,76.9,64.8,52.6,65.3,59.3,48.8,92,83,66,30.15,30.04,8,1,8,0.12
2013-8-12,82.3,71.0,61.9,67.1,62.1,54.9,94,75,46,30.05,29.93,12,2,12,0.01
2013-8-13,74.0,62.8,51.5,57.2,49.9,45.5,86,64,42,30.18,30.01,14,3,14,0.00
2013-8-14,52.6,50.0,47.9,47.3,45.4,43.7,87,84,81,30.20,30.17,1,0,1,0.00
2013-8-15,59.4,58.2,56.9,52.9,52.2,51.4,83,80,79,30.15,30.13,0,0,0,0.00
2013-8-16,86.8,68.3,51.7,58.1,52.9,48.1,89,62,29,30.21,30.14,8,1,8,0.00
2013-8-17,90.9,69.1,51.3,59.3,53.1,47.5,88,61,30,30.26,30.17,10,1,10,0.00
2013-8-18,88.6,69.1,50.8,60.3,53.5,46.6,88,62,31,30.23,30.10,9,1,9,0.00
2013-8-19,86.4,69.9,54.0,63.6,57.1,49.6,87,66,41,30.11,30.03,10,2,10,0.00
2013-8-20,91.6,75.9,59.6,66.7,62.5,55.8,90,66,42,30.09,30.00,12,2,12,0.00
2013-8-21,92.9,80.3,70.2,70.6,67.4,63.5,81,66,45,30.03,29.93,15,3,15,0.00
2013-8-22,83.7,71.6,66.6,72.0,66.6,60.7,94,85,64,30.15,30.00,18,2,18,1.02
2013-8-23,89.8,72.0,56.0,62.6,58.3,52.7,91,65,38,30.20,30.13,10,2,10,0.00
2013-8-24,88.6,72.5,54.9,68.6,61.4,50.8,88,69,51,30.26,30.16,10,2,10,0.00
2013-8-25,92.7,79.9,69.8,72.3,67.2,62.7,82,66,48,30.20,30.09,11,3,11,0.00
2013-8-26,95.8,81.4,71.1,76.2,70.2,64.2,80,70,52,30.14,29.96,12,2,12,0.00
2013-8-27,97.4,83.8,72.9,75.6,71.9,67.4,85,69,47,29.98,29.82,12,2,12,0.00
2013-8-28,91.1,78.0,70.6,72.9,69.9,65.6,91,77,51,30.07,29.85,10,2,10,0.00
2013-8-29,93.1,76.8,61.6,72.0,66.0,58.8,92,72,44,30.10,29.97,10,2,10,0.00
2013-8-30,92.7,80.3,71.3,77.0,71.2,65.5,89,75,56,29.98,29.79,10,3,10,0.00
2013-8-31,90.7,73.9,63.9,69.1,64.0,59.5,87,72,47,29.90,29.80,9,2,9,0.00
2013-9-1,86.6,71.6,60.7,71.9,63.3,55.4,94,77,42,29.86,29.74,12,2,12,0.00
2013-9-2,73.1,63.9,52.4,59.0,55.1,47.8,91,74,50,30.02,29.85,12,3,12,0.00
2013-9-3,77.8,60.4,46.3,56.4,50.3,43.8,92,72,43,30.11,30.01,10,1,10,0.00
2013-9-4,88.6,67.4,48.2,66.7,56.7,45.1,90,71,45,30.13,30.04,9,2,9,0.00
2013-9-5,87.8,69.3,57.8,62.4,58.2,47.5,90,70,42,30.27,30.13,11,4,11,0.00
2013-9-6,92.0,72.2,54.2,66.2,58.0,46.7,82,63,42,30.23,29.98,9,2,9,0.00
2013-9-7,95.4,78.9,68.8,72.4,65.9,60.5,85,66,46,29.99,29.88,11,2,11,0.00
2013-9-8,73.4,68.3,62.8,67.4,62.3,57.7,87,81,75,30.08,29.96,12,4,12,0.00
2013-9-9,98.1,78.8,65.9,76.3,68.7,61.2,91,73,47,29.97,29.78,9,2,9,0.00
2013-9-10,97.7,83.4,73.4,67.5,64.1,61.8,75,54,33,29.96,29.83,15,3,15,0.00
2013-9-11,86.2,73.3,66.1,68.5,64.7,61.7,91,76,52,30.11,29.96,14,2,14,0.36
2013-9-12,74.7,64.9,56.0,62.7,53.9,46.4,92,70,45,30.15,29.98,17,4,17,0.00
2013-9-13,71.1,54.9,43.7,46.9,41.5,38.0,90,64,32,30.24,30.14,13,3,13,0.00
2013-9-14,78.3,58.5,40.3,48.8,43.6,36.6,90,62,32,30.16,29.97,9,2,9,0.00
2013-9-15,65.5,57.3,53.6,56.5,52.1,44.9,92,83,54,30.23,29.96,11,2,11,0.68
2013-9-16,71.5,54.8,41.4,51.5,44.2,37.2,89,69,37,30.40,30.23,11,3,11,0.00
2013-9-17,72.0,56.5,39.6,55.5,48.4,36.4,92,76,53,30.34,30.07,12,2,12,0.01
2013-9-18,79.9,70.5,59.9,67.0,62.1,54.8,90,75,61,30.07,29.87,10,3,10,0.03
2013-9-19,90.4,72.4,66.8,73.8,67.5,63.8,94,86,54,29.88,29.71,18,2,22,1.43
2013-9-20,70.0,65.2,56.2,65.2,59.2,52.6,94,82,58,29.84,29.73,14,4,14,0.03
2013-9-21,64.4,54.0,45.7,52.7,47.0,42.4,91,78,55,29.95,29.83,13,4,13,0.00
2013-9-22,73.6,52.8,40.0,49.4,44.0,37.5,93,74,40,30.08,29.95,7,2,7,0.02
2013-9-23,75.8,55.4,42.3,53.9,46.9,38.5,94,75,42,30.11,30.01,10,2,10,0.00
2013-9-24,78.5,57.9,44.3,53.9,48.6,41.4,93,74,41,30.04,29.94,11,2,11,0.00
2013-9-25,79.0,58.5,44.6,56.5,49.9,42.1,94,76,42,30.00,29.93,10,2,10,0.00
2013-9-26,81.9,58.9,42.5,58.1,48.9,39.8,94,73,35,30.08,29.98,11,2,11,0.00
2013-9-27,84.8,63.3,45.7,57.3,50.3,43.0,93,66,32,30.13,30.02,12,2,12,0.00
2013-9-28,80.3,65.0,53.8,65.3,55.1,48.5,91,72,52,30.03,29.81,15,4,15,0.25
2013-9-29,79.4,56.8,43.7,51.2,45.7,41.4,94,71,31,30.06,29.97,5,1,5,0.01
2013-9-30,77.0,59.8,43.6,49.2,45.5,39.7,90,62,33,29.98,29.80,10,2,10,0.00
2013-10-1,83.7,65.7,54.0,62.0,55.9,47.5,91,72,46,29.97,29.83,10,2,13,0.05
2013-10-2,85.3,61.3,43.6,53.5,45.2,40.3,92,61,24,30.11,29.96,8,2,8,0.00
2013-10-3,77.8,66.3,57.6,67.3,59.5,42.8,92,79,53,29.96,29.81,6,2,11,0.00
2013-10-4,67.3,64.8,61.7,64.6,62.3,59.4,94,92,89,29.99,29.85,12,3,12,0.19
2013-10-5,75.4,65.3,57.2,71.5,62.8,46.9,96,92,68,29.94,29.73,13,3,13,0.25
2013-10-6,59.4,50.9,41.9,47.6,42.6,38.9,91,74,50,29.77,29.66,8,2,8,0.06
2013-10-7,70.9,52.7,41.9,47.7,43.6,37.9,91,74,39,30.06,29.70,13,3,13,0.00
2013-10-8,79.0,56.7,38.5,52.8,44.1,35.8,93,67,32,30.12,30.05,10,1,10,0.00
2013-10-9,77.9,59.2,46.1,51.8,45.9,41.1,88,64,33,30.19,30.09,10,1,10,0.00
2013-10-10,78.8,56.6,39.8,53.3,45.7,36.4,92,70,37,30.15,30.02,10,1,10,0.00
2013-10-11,76.9,61.0,47.7,60.0,52.3,43.4,92,74,50,30.03,29.88,14,3,14,0.00
2013-10-12,69.8,61.4,41.8,59.5,49.4,35.0,87,66,41,30.14,29.87,14,3,14,0.10
2013-10-13,64.6,46.5,34.9,43.5,35.5,31.1,91,68,33,30.38,30.14,12,2,12,0.00
2013-10-14,66.6,47.0,32.0,45.6,38.2,28.6,90,73,42,30.39,30.09,12,3,12,0.00
2013-10-15,60.8,52.8,46.1,57.4,47.8,41.6,93,83,70,30.09,29.71,10,3,10,0.28
2013-10-16,53.6,49.5,46.8,49.0,45.8,43.7,93,87,81,29.92,29.75,10,3,10,0.01
2013-10-17,58.0,46.9,37.1,44.9,40.7,33.4,93,80,48,29.90,29.78,8,1,8,0.02
2013-10-18,48.2,43.0,35.8,42.1,37.5,32.2,90,81,69,29.92,29.77,13,3,13,0.00
2013-10-19,52.6,40.1,29.7,42.7,34.5,26.9,92,81,49,29.88,29.69,17,1,17,0.04
2013-10-20,48.6,40.8,29.7,45.2,37.3,27.3,94,87,69,29.82,29.67,10,2,10,0.09
2013-10-21,47.0,38.4,29.3,43.0,29.6,21.1,87,71,53,29.92,29.72,15,4,15,0.02
2013-10-22,49.0,35.6,25.4,32.6,26.7,20.8,85,71,53,29.94,29.87,7,2,7,0.00
2013-10-23,43.0,34.1,25.6,29.6,26.4,21.7,90,74,48,29.99,29.92,9,2,11,0.01
2013-10-24,46.3,36.0,28.8,28.5,25.7,22.2,82,67,45,30.26,29.99,14,4,14,0.00
2013-10-25,52.6,40.2,26.3,31.1,26.9,21.5,84,61,42,30.31,29.87,17,3,17,0.00
2013-10-26,51.3,44.7,37.1,37.2,30.0,26.3,72,57,43,30.04,29.75,17,5,18,0.05
2013-10-27,57.6,39.3,25.4,32.2,26.9,20.5,85,63,37,30.03,29.85,13,2,13,0.00
2013-10-28,43.6,39.7,32.4,32.8,30.9,25.0,85,71,60,30.37,30.00,13,4,13,0.00
2013-10-29,53.5,44.0,36.7,41.6,35.9,28.5,85,74,61,30.36,30.09,9,3,9,0.00
2013-10-30,54.2,50.1,44.8,52.7,47.4,40.1,95,91,82,30.09,29.70,10,2,10,0.01
2013-10-31,62.6,54.7,43.0,60.7,52.6,39.1,96,93,85,29.70,29.27,14,3,14,0.56
2013-11-1,46.4,43.0,37.8,42.9,39.5,34.9,90,88,83,29.72,29.31,10,4,12,0.01
2013-11-2,46.1,38.9,29.9,37.5,34.3,26.8,93,84,67,30.11,29.72,11,3,11,0.02
2013-11-3,53.3,37.9,24.5,38.9,31.3,21.8,94,78,48,30.24,30.11,12,3,12,0.00
2013-11-4,52.6,47.9,42.5,45.5,39.8,36.0,88,74,64,30.15,29.98,13,4,13,0.00
2013-11-5,54.7,50.2,46.4,50.4,46.9,43.8,94,89,76,30.21,29.80,11,3,11,0.47
2013-11-6,54.9,42.5,31.3,53.0,36.9,23.5,95,81,59,30.12,29.68,16,6,16,0.28
2013-11-7,43.2,34.1,27.5,32.1,27.4,22.6,84,76,62,30.17,30.12,11,3,11,0.00
2013-11-8,47.7,39.8,22.0,35.1,30.8,19.2,92,71,53,30.23,29.74,13,4,13,0.00
2013-11-9,52.6,46.0,37.8,40.5,35.2,25.7,79,66,54,30.06,29.71,20,7,20,0.00
2013-11-10,48.1,41.3,36.7,32.1,29.6,26.9,72,63,48,30.28,30.06,12,4,15,0.00
2013-11-11,44.3,32.2,21.6,33.7,24.7,14.1,92,74,63,30.52,30.01,18,5,18,0.06
2013-11-12,33.3,22.4,16.9,16.7,13.7,11.2,79,70,47,30.66,30.49,11,4,11,0.00
2013-11-13,44.8,30.1,17.8,19.8,16.1,11.9,79,58,36,30.49,30.01,16,4,16,0.00
2013-11-14,42.8,34.0,30.6,26.8,21.3,18.3,66,60,51,30.01,29.89,12,3,12,0.00
2013-11-15,58.0,43.4,29.5,40.4,33.5,23.8,84,69,50,29.89,29.82,8,2,11,0.00
2013-11-16,57.8,44.7,37.8,54.1,41.9,32.8,94,90,81,29.83,29.42,13,4,13,0.24
2013-11-17,57.4,53.2,44.6,54.2,50.5,41.5,95,91,83,29.45,29.15,19,4,19,0.77
2013-11-18,38.7,34.1,24.5,32.3,27.0,20.3,84,75,60,30.20,29.65,22,8,22,0.00
2013-11-19,43.2,29.9,18.4,28.7,23.0,15.0,89,76,54,30.30,30.16,10,2,10,0.00
2013-11-20,40.3,36.2,33.1,34.6,30.1,27.5,92,79,63,30.17,30.03,13,4,13,0.09
2013-11-21,42.7,39.2,36.7,38.2,36.0,33.9,92,88,82,30.21,30.04,10,2,10,0.00
2013-11-22,37.1,30.4,23.6,34.1,23.5,14.7,92,76,55,30.43,30.20,13,4,13,0.00
2013-11-23,24.3,17.6,9.7,15.8,7.1,2.1,75,63,49,30.66,30.35,18,8,18,0.05
2013-11-24,28.4,15.6,8.3,8.4,5.2,2.7,81,65,36,30.63,30.17,14,2,14,0.00
2013-11-25,31.5,26.6,21.4,26.1,20.0,8.0,89,77,48,30.17,29.95,16,4,16,0.01
2013-11-26,32.0,25.0,12.4,26.1,16.3,3.0,83,70,55,30.17,29.95,18,6,18,0.00
2013-11-27,18.5,11.9,10.1,11.3,5.6,3.3,81,76,67,30.22,30.16,11,6,11,0.00
2013-11-28,30.4,23.3,19.8,17.6,14.0,12.2,73,67,56,30.44,30.07,10,2,10,0.00
2013-11-29,31.3,22.6,8.6,22.1,15.0,4.1,85,73,58,30.55,30.26,9,2,9,0.00
2013-11-30,44.1,33.3,26.6,32.0,26.2,21.0,83,75,62,30.26,29.97,9,1,9,0.00
2013-12-1,40.0,31.9,26.3,28.7,25.4,20.9,88,77,60,30.10,29.93,7,1,7,0.00
2013-12-2,41.2,31.9,21.8,33.5,27.4,18.2,92,84,72,29.93,29.68,12,3,12,0.03
2013-12-3,38.5,36.0,33.7,37.2,34.5,31.5,95,94,93,29.70,29.62,11,4,11,0.20
2013-12-4,48.4,39.5,33.7,47.2,37.9,28.8,96,94,82,29.70,29.40,16,3,16,0.06
2013-12-5,33.5,20.6,13.1,29.1,13.2,6.9,84,73,62,30.22,29.60,17,6,17,0.00
2013-12-6,17.3,10.3,6.7,6.8,3.1,0.7,79,73,58,30.48,30.19,11,5,11,0.00
2013-12-7,15.5,7.2,1.6,2.0,-0.4,-4.0,82,71,51,30.62,30.48,10,2,10,0.00
2013-12-8,19.3,14.4,7.6,16.2,8.3,-0.3,89,77,60,30.52,29.89,11,3,11,0.00
2013-12-9,16.2,8.6,-5.0,12.3,2.7,-10.9,87,77,59,30.12,29.87,14,3,14,0.00
2013-12-10,17.5,8.6,-5.6,9.9,1.5,-10.9,84,73,59,30.18,29.83,16,4,16,0.00
2013-12-11,13.9,5.9,-5.0,10.3,-1.5,-13.0,86,72,54,30.44,30.16,13,3,13,0.00
2013-12-12,18.7,9.9,-3.8,11.2,2.5,-9.8,78,72,62,30.41,30.10,10,2,10,0.00
2013-12-13,24.1,18.0,12.4,17.0,12.3,7.1,84,78,71,30.14,30.06,14,3,14,0.00
2013-12-14,23.0,20.0,16.9,18.5,16.0,12.4,88,84,80,30.11,29.87,14,5,14,0.00
2013-12-15,19.3,10.0,3.6,13.9,1.7,-6.3,83,69,57,30.07,29.86,15,5,15,0.00
2013-12-16,15.5,7.8,-4.1,11.9,1.5,-10.4,90,76,58,30.07,29.93,7,1,7,0.00
2013-12-17,33.5,24.4,14.4,25.3,18.3,11.4,92,78,60,30.01,29.83,15,5,15,0.05
2013-12-18,34.9,22.9,9.0,25.6,15.2,3.2,83,73,56,30.04,29.70,12,2,12,0.01
2013-12-19,30.1,25.1,17.3,25.2,20.8,13.5,92,84,70,29.92,29.72,14,3,14,0.00
2013-12-20,24.1,22.0,20.2,21.2,19.4,17.4,93,90,87,29.84,29.75,14,6,14,0.00
2013-12-21,26.5,24.4,22.3,24.3,22.3,20.4,93,92,91,29.83,29.68,13,4,13,0.00
2013-12-22,25.9,23.0,14.4,23.5,20.2,11.8,92,89,82,30.05,29.65,16,4,16,0.00
2013-12-23,20.2,9.5,-1.8,17.6,4.8,-6.2,92,81,72,30.35,30.05,8,3,8,0.00
2013-12-24,12.8,1.8,-11.2,6.3,-3.0,-15.4,87,80,73,30.45,30.19,5,1,6,0.00
2013-12-25,22.9,20.0,9.9,19.5,16.6,6.5,89,87,83,30.19,29.99,10,3,10,0.00
2013-12-26,28.8,20.9,10.8,22.0,16.0,6.6,87,81,72,30.15,30.02,8,1,9,0.01
2013-12-27,36.9,24.8,6.8,30.3,20.2,3.8,92,83,76,30.17,29.93,12,2,12,0.10
2013-12-28,42.3,32.1,16.2,32.8,26.6,12.9,93,80,69,29.97,29.68,10,2,10,0.08
2013-12-29,37.8,18.5,-5.0,30.7,12.6,-12.3,89,77,70,30.17,29.65,18,8,18,0.00
2013-12-30,5.2,-3.0,-14.4,-2.6,-10.2,-20.2,81,71,55,30.24,30.11,4,1,5,0.00
2013-12-31,8.5,2.9,-4.5,2.5,-2.3,-8.7,83,79,67,30.27,30.09,8,2,8,0.00
2014-1-1,9.7,4.6,0.4,1.1,-3.4,-8.3,73,69,64,30.30,30.22,13,6,13,0.00
2014-1-2,11.7,4.7,-9.9,2.5,-2.3,-16.0,82,72,61,30.35,30.18,14,4,14,0.00